Boone County Airport Harrison US
ICAO: KHRO
IATA: HRO
Category: Medium
Scheduled Services: Yes

Elevation: 1365 ft
TransAlt. 18000 ft.

Airport Communications:
ASOS:121.125
MEMPHIS CNTR:126.85
JONESBORO RDO:122.45
CTAF/UNICOM:123

KHRO Zoom In..

If Map Doesn't Load, Click Here

Runways:

(A) RW 18 length 6161 ft width 150 ft
---- / hdg 182

(B) RW 36 length 6161 ft width 150 ft
ILS 111.70 / hdg 2

Location; KHRO
Day. 24 / Time. 05.53 Zulu
* Altimeter: 30.00
* Temperature: 18° c. 64.4°f.
* Wind from: 120° Speed 05 kn.
Dewpoint: 18° c.
Visibility: 5 Statute Miles.
Clouds: Broken 200 ft.
Clouds: Overcast 700 ft.
Conditions: Mist.

KHRO 240553Z AUTO 12005KT 5SM BR BKN002 OVC007 18/18 A3000 RMK AO2 CIG 002V005 SLP148 T01780178 10194 20172 402000156 58003


Wind From 120°
Speed 05 kn.

 
 
jpsmedia.com for Web Design worldairports.se 2018   terms of use